• Join FlightAware (Why Join?)
  • Login
  • US Flag 
08:06AM EDT


 

Airport Tracker/Info


-or-


 

Live Flight TrackerFlight Track Log ✈ N421KS ✈ 06-Sep-2013 ✈ KPQI - KPWM

Flight Track Log - Related Links

Times and Time Zones

All times are in EDT time to prevent confusion due to time zone crossing. See the N421KS flight status page for this flight to view local times or setup timezone preferences in your user account.

Time Position Orientation Groundspeed Altitude Reporting Facility
EDT Latitude Longitude Course Direction KTS MPH feet Rate Location/Type
06:54AM 43.9371 -70.1033 32° Northeast  Level Estimated
06:55AM 43.9823 -70.0610 34° Northeast  Level FlightAware Approximate
06:56AM 44.0274 -70.0185 34° Northeast  Level FlightAware Approximate
06:57AM 44.0725 -69.9760 34° Northeast  Level FlightAware Approximate
06:58AM 44.1112 -69.9320 39° Northeast  Level FlightAware Approximate
06:59AM 44.1498 -69.8878 39° Northeast  Level FlightAware Approximate
07:00AM 44.1884 -69.8436 39° Northeast  Level FlightAware Approximate
07:01AM 44.2270 -69.7993 39° Northeast  Level FlightAware Approximate
07:02AM 44.2656 -69.7550 39° Northeast  Level FlightAware Approximate
07:03AM 44.3042 -69.7106 39° Northeast  Level FlightAware Approximate
07:04AM 44.3427 -69.6662 40° Northeast  Level FlightAware Approximate
07:05AM 44.3812 -69.6217 40° Northeast  Level FlightAware Approximate
07:06AM 44.3399 -69.6609 25° Northeast  Level Estimated
07:07AM 44.3847 -69.6301 26° Northeast  Level FlightAware Approximate
07:08AM 44.4296 -69.5993 26° Northeast  Level FlightAware Approximate
07:09AM 44.4744 -69.5685 26° Northeast  Level FlightAware Approximate
07:10AM 44.5193 -69.5376 26° Northeast  Level FlightAware Approximate
07:11AM 44.5641 -69.5066 26° Northeast  Level FlightAware Approximate
07:12AM 44.6089 -69.4756 26° Northeast  Level FlightAware Approximate
07:13AM 44.6537 -69.4446 26° Northeast  Level FlightAware Approximate
07:14AM 44.6985 -69.4135 26° Northeast  Level FlightAware Approximate
07:15AM 44.7433 -69.3824 26° Northeast  Level FlightAware Approximate
07:16AM 44.7881 -69.3512 26° Northeast  Level FlightAware Approximate
07:17AM 44.8329 -69.3200 26° Northeast  Level FlightAware Approximate
07:18AM 44.8777 -69.2887 26° Northeast  Level FlightAware Approximate
07:19AM 44.9224 -69.2573 26° Northeast  Level FlightAware Approximate
07:20AM 44.9672 -69.2260 26° Northeast  Level FlightAware Approximate
07:20AM 44.9722 -69.3561 26° Northeast 192 221 8,900  Level Boston Center
07:21AM 45.0119 -69.1945 26° Northeast  Level FlightAware Approximate
07:21AM 45.0194 -69.3244 25° Northeast 192 221 8,900  Level Boston Center
07:22AM 45.0566 -69.1631 26° Northeast  Level FlightAware Approximate
07:22AM 45.0644 -69.2925 27° Northeast 192 221 9,000  Level Boston Center
07:23AM 45.1014 -69.1315 26° Northeast  Level FlightAware Approximate
07:23AM 45.1094 -69.2606 27° Northeast 187 215 9,000  Level Boston Center
07:24AM 45.0583 -69.1674 26° Northeast  Level Estimated
07:24AM 45.1564 -69.2258 28° Northeast 187 215 8,900  Level Boston Center
07:25AM 45.1031 -69.1361 26° Northeast  Level FlightAware Approximate
07:25AM 45.2014 -69.1967 25° Northeast 182 209 9,000  Level Boston Center
07:26AM 45.1479 -69.1048 26° Northeast  Level FlightAware Approximate
07:26AM 45.2483 -69.1644 26° Northeast 182 209 8,900  Level Boston Center
07:27AM 45.2933 -69.1325 27° Northeast 182 209 8,900  Level Boston Center
07:28AM 45.3358 -69.0947 32° Northeast 177 204 8,900  Level Boston Center
07:29AM 45.3808 -69.0594 29° Northeast 177 204 8,900  Level Boston Center
07:30AM 45.4256 -69.0214 31° Northeast 177 204 8,900  Level Boston Center
07:31AM 45.4639 -68.9867 32° Northeast 177 204 8,900  Level Boston Center
07:32AM 45.5067 -68.9544 28° Northeast 177 204 8,900  Level Boston Center
07:33AM 45.5514 -68.9161 31° Northeast 177 204 9,000  Climbing Boston Center
07:34AM 45.5961 -68.8778 31° Northeast 177 204 8,900  Descending Boston Center
07:35AM 45.6389 -68.8425 30° Northeast 177 204 9,000  Climbing Boston Center
07:36AM 45.6833 -68.8039 31° Northeast 177 204 8,900 -60 Descending Boston Center
07:37AM 45.7303 -68.7711 26° Northeast 177 204 8,900  Level Boston Center
07:38AM 45.7811 -68.7322 28° Northeast 183 211 8,900 -180 Level Boston Center
07:39AM 45.8258 -68.6936 31° Northeast 183 211 8,600 -360 Descending Boston Center
07:40AM 45.8744 -68.6544 29° Northeast 178 205 8,300 -300 Descending Boston Center
07:41AM 45.9192 -68.6189 29° Northeast 178 205 8,100 -300 Descending Boston Center
07:42AM 45.9658 -68.5797 30° Northeast 178 205 7,700 -360 Descending Boston Center
07:43AM 46.0125 -68.5467 26° Northeast 183 211 7,400 -300 Descending Boston Center
07:44AM 46.0594 -68.5106 28° Northeast 183 211 7,100 -360 Descending Boston Center
07:45AM 46.1036 -68.4686 33° Northeast 183 211 6,700 -480 Descending Boston Center
07:46AM 46.1503 -68.4325 28° Northeast 178 205 6,200 -540 Descending Boston Center
07:47AM 46.1950 -68.3992 27° Northeast 178 205 5,700 -480 Descending Boston Center
07:48AM 46.2397 -68.3661 27° Northeast 178 205 5,300 -480 Descending Boston Center
07:49AM 46.2864 -68.3325 26° Northeast 178 205 4,800 -420 Descending Boston Center
07:50AM 46.3311 -68.2992 27° Northeast 178 205 4,500 -360 Descending Boston Center
07:51AM 46.3800 -68.2686 23° Northeast 178 205 4,100 -360 Descending Boston Center
07:52AM 46.4247 -68.2350 27° Northeast 178 205 3,800 -300 Descending Boston Center
07:53AM 46.4694 -68.2047 25° Northeast 172 198 3,600 -240 Descending Boston Center
07:55AM 46.5095 -68.1583 39° Northeast  Level FlightAware Approximate
08:04AM 46.6833 -68.0333 25° Northeast  Level FlightAware Approximate
08:05AM 46.6411 -68.0669 25° Northeast  Level Estimated
08:06AM 46.6833 -68.0333 25° Northeast  Level FlightAware Approximate
08:07AM 46.6411 -68.0669 25° Northeast  Level Estimated
08:08AM 46.6833 -68.0333 25° Northeast  Level FlightAware Approximate
08:09AM 46.6411 -68.0669 25° Northeast  Level Estimated
08:10AM 46.6833 -68.0333 25° Northeast  Level FlightAware Approximate
08:11AM 46.6411 -68.0669 25° Northeast  Level Estimated
08:12AM 46.6833 -68.0333 25° Northeast  Level FlightAware Approximate
08:13AM 46.6411 -68.0669 25° Northeast  Level Estimated
08:14AM 46.6833 -68.0333 25° Northeast  Level FlightAware Approximate
08:15AM 46.6411 -68.0669 25° Northeast  Level Estimated
08:16AM 46.6833 -68.0333 25° Northeast  Level FlightAware Approximate